Time;durP1;ratioP1;P1;durP2;ratioP2;P2;SDS_P1;SDS_P2;PMS_P1;PMS_P2;Temp;Humidity;BMP_temperature;BMP_pressure;BME280_temperature;BME280_humidity;BME280_pressure;Samples;Min_cycle;Max_cycle;Signal;HPM_P1;HPM_P2
2021/12/12 00:01:12;;;;;;;7.90;4.07;;;1.90;99.90;;;;;;4925551;29;20756;-71
2021/12/12 00:03:47;;;;;;;12.07;4.63;;;1.80;99.90;;;;;;4926015;29;20227;-72
2021/12/12 00:06:31;;;;;;;9.70;4.43;;;1.90;99.90;;;;;;4913535;29;20248;-72
2021/12/12 00:09:07;;;;;;;8.17;4.10;;;1.80;99.90;;;;;;4925594;29;20203;-71
2021/12/12 00:11:36;;;;;;;9.00;4.73;;;1.70;99.90;;;;;;4925383;29;20226;-74
2021/12/12 00:14:13;;;;;;;7.57;4.20;;;1.70;99.90;;;;;;4930617;29;20217;-72
2021/12/12 00:16:41;;;;;;;9.63;4.37;;;1.70;99.90;;;;;;4930691;29;20256;-72
2021/12/12 00:19:08;;;;;;;8.63;4.53;;;1.70;99.90;;;;;;4926720;29;20200;-74
2021/12/12 00:21:37;;;;;;;10.83;4.43;;;1.80;99.90;;;;;;4925884;29;20223;-72
2021/12/12 00:24:09;;;;;;;8.83;4.50;;;1.90;99.90;;;;;;4914483;29;20268;-72
2021/12/12 00:26:36;;;;;;;14.00;4.23;;;2.00;99.90;;;;;;4916124;29;20200;-72
2021/12/12 00:29:05;;;;;;;14.53;4.83;;;1.90;99.90;;;;;;4926809;29;20201;-73
2021/12/12 00:31:32;;;;;;;12.23;4.90;;;2.10;99.90;;;;;;4909111;29;20220;-73
2021/12/12 00:34:01;;;;;;;9.37;5.00;;;2.10;99.90;;;;;;4929791;29;20205;-73
2021/12/12 00:36:29;;;;;;;10.87;5.23;;;2.00;99.90;;;;;;4914853;29;20247;-72
2021/12/12 00:39:06;;;;;;;11.90;4.90;;;2.00;99.90;;;;;;4924772;29;20685;-71
2021/12/12 00:41:49;;;;;;;8.90;4.60;;;1.90;99.90;;;;;;4919989;29;20225;-72
2021/12/12 00:44:16;;;;;;;9.00;4.73;;;1.70;99.90;;;;;;4920652;29;20662;-73
2021/12/12 00:46:45;;;;;;;9.53;4.87;;;1.60;99.90;;;;;;4919836;29;20206;-71
2021/12/12 00:49:14;;;;;;;12.00;5.07;;;1.50;99.90;;;;;;4917112;29;20587;-69
2021/12/12 00:51:43;;;;;;;10.63;4.80;;;1.40;99.90;;;;;;4930267;28;20217;-72
2021/12/12 00:54:13;;;;;;;13.17;5.70;;;1.40;99.90;;;;;;4928795;29;20747;-71
2021/12/12 00:56:40;;;;;;;8.67;5.07;;;1.40;99.90;;;;;;4919049;29;20373;-71
2021/12/12 00:59:07;;;;;;;10.57;5.13;;;1.50;99.90;;;;;;4914020;29;20199;-72
2021/12/12 01:01:39;;;;;;;10.33;5.30;;;1.60;99.90;;;;;;4923621;29;20233;-71
2021/12/12 01:04:11;;;;;;;13.57;5.00;;;1.80;99.90;;;;;;4917733;29;20283;-71
2021/12/12 01:06:38;;;;;;;10.50;5.03;;;1.90;99.90;;;;;;4913963;29;20209;-72
2021/12/12 01:09:11;;;;;;;9.83;5.13;;;2.00;99.90;;;;;;4904202;29;20197;-73
2021/12/12 01:11:42;;;;;;;10.47;5.27;;;2.00;99.90;;;;;;4926477;29;20219;-73
2021/12/12 01:14:12;;;;;;;8.83;5.30;;;1.90;99.90;;;;;;4913593;29;20227;-71
2021/12/12 01:17:08;;;;;;;12.30;4.90;;;2.00;99.90;;;;;;4913978;29;20207;-71
2021/12/12 01:19:42;;;;;;;13.40;5.10;;;2.00;99.90;;;;;;4927278;29;20199;-71
2021/12/12 01:22:19;;;;;;;11.67;5.40;;;2.00;99.90;;;;;;4913070;29;20600;-72
2021/12/12 01:24:50;;;;;;;12.47;5.47;;;2.00;99.90;;;;;;4913650;29;20227;-71
2021/12/12 01:27:18;;;;;;;12.87;5.83;;;2.00;99.90;;;;;;4918481;29;20190;-72
2021/12/12 01:29:45;;;;;;;10.90;5.20;;;2.00;99.90;;;;;;4926504;29;20218;-72
2021/12/12 01:32:22;;;;;;;11.03;5.43;;;2.00;99.90;;;;;;4905807;29;20221;-72
2021/12/12 01:34:51;;;;;;;12.73;5.03;;;2.00;99.90;;;;;;4914644;29;20210;-72
2021/12/12 01:40:07;;;;;;;11.53;4.90;;;2.00;99.90;;;;;;4931290;29;20237;-72
2021/12/12 01:43:09;;;;;;;12.70;5.20;;;2.10;99.90;;;;;;4934142;29;20694;-74
2021/12/12 01:45:45;;;;;;;11.60;5.00;;;2.30;99.90;;;;;;4916237;29;20222;-71
2021/12/12 01:48:33;;;;;;;9.63;5.40;;;2.20;99.90;;;;;;4922006;29;20202;-72
2021/12/12 01:51:06;;;;;;;10.17;4.70;;;2.10;99.90;;;;;;4932621;29;20229;-72
2021/12/12 01:53:37;;;;;;;12.37;4.40;;;1.90;99.90;;;;;;4933464;29;20201;-72
2021/12/12 01:56:18;;;;;;;10.17;4.63;;;1.80;99.90;;;;;;4930290;29;20494;-71
2021/12/12 01:58:49;;;;;;;10.73;4.67;;;1.70;99.90;;;;;;4917122;29;20199;-73
2021/12/12 02:01:20;;;;;;;11.80;5.20;;;1.60;99.90;;;;;;4931067;29;20237;-72
2021/12/12 02:03:52;;;;;;;11.60;4.90;;;1.60;99.90;;;;;;4931349;29;20665;-72
2021/12/12 02:06:21;;;;;;;13.47;5.10;;;1.60;99.90;;;;;;4917312;29;20208;-73
2021/12/12 02:08:49;;;;;;;12.83;5.23;;;1.60;99.90;;;;;;4927294;29;20213;-72
2021/12/12 02:11:22;;;;;;;12.87;5.50;;;1.60;99.90;;;;;;4926122;29;20212;-72
2021/12/12 02:13:52;;;;;;;12.50;5.27;;;1.50;99.90;;;;;;4930500;29;20213;-72
2021/12/12 02:16:22;;;;;;;10.13;5.30;;;1.50;99.90;;;;;;4917080;29;20218;-74
2021/12/12 02:18:52;;;;;;;9.77;5.03;;;1.50;99.90;;;;;;4923833;29;20210;-72
2021/12/12 02:21:31;;;;;;;9.90;5.13;;;1.50;99.90;;;;;;4932089;29;20229;-72
2021/12/12 02:35:42;;;;;;;13.33;5.30;;;2.00;99.90;;;;;;4924281;29;20214;-72
2021/12/12 02:38:12;;;;;;;14.97;5.40;;;1.80;99.90;;;;;;4918495;29;20213;-72
2021/12/12 02:40:43;;;;;;;10.17;5.40;;;1.80;99.90;;;;;;4926888;29;20203;-72
2021/12/12 02:43:13;;;;;;;11.87;5.17;;;1.80;99.90;;;;;;4923658;29;20210;-72
2021/12/12 02:45:42;;;;;;;12.43;6.03;;;1.80;99.90;;;;;;4928178;29;20222;-74
2021/12/12 02:48:16;;;;;;;12.97;6.57;;;1.80;99.90;;;;;;4931136;29;20213;-72
2021/12/12 02:50:47;;;;;;;12.57;6.00;;;1.80;99.90;;;;;;4899487;29;20227;-72
2021/12/12 02:53:25;;;;;;;10.40;5.17;;;1.90;99.90;;;;;;4922534;29;20199;-74
2021/12/12 02:55:58;;;;;;;12.53;5.53;;;2.00;99.90;;;;;;4925942;29;20559;-72
2021/12/12 02:58:26;;;;;;;8.73;5.33;;;2.20;99.90;;;;;;4916259;29;20275;-72
2021/12/12 03:01:02;;;;;;;13.17;5.60;;;2.30;99.90;;;;;;4902719;29;20233;-72
2021/12/12 03:03:33;;;;;;;9.77;5.20;;;2.40;99.90;;;;;;4929011;29;20195;-72
2021/12/12 03:05:59;;;;;;;12.83;5.50;;;2.40;99.90;;;;;;4916776;29;20283;-72
2021/12/12 03:08:26;;;;;;;9.57;4.97;;;2.60;99.90;;;;;;4915581;29;20576;-72
2021/12/12 03:10:54;;;;;;;10.63;5.70;;;2.60;99.90;;;;;;4921572;29;20277;-72
2021/12/12 03:13:23;;;;;;;11.93;5.10;;;2.80;99.90;;;;;;4922080;29;20679;-72
2021/12/12 03:15:52;;;;;;;13.43;5.10;;;2.90;99.90;;;;;;4915732;29;20207;-72
2021/12/12 03:18:26;;;;;;;11.10;5.77;;;2.90;99.90;;;;;;4920682;29;20195;-72
2021/12/12 03:20:58;;;;;;;9.83;5.77;;;2.80;99.90;;;;;;4924166;29;20345;-72
2021/12/12 03:23:33;;;;;;;10.93;5.57;;;2.90;99.90;;;;;;4916022;29;20274;-72
2021/12/12 03:26:05;;;;;;;12.07;6.00;;;3.00;99.90;;;;;;4918978;29;20230;-72
2021/12/12 03:28:36;;;;;;;11.97;5.80;;;3.10;99.90;;;;;;4926666;29;20204;-72
2021/12/12 03:31:06;;;;;;;12.37;5.40;;;3.10;99.90;;;;;;4915270;29;20223;-72
2021/12/12 03:33:33;;;;;;;12.63;5.77;;;3.20;99.90;;;;;;4915256;29;20708;-72
2021/12/12 03:36:04;;;;;;;11.53;5.47;;;3.10;99.90;;;;;;4925608;29;20210;-72
2021/12/12 03:38:32;;;;;;;7.83;4.57;;;3.00;99.90;;;;;;4928486;29;20210;-72
2021/12/12 03:41:03;;;;;;;15.63;5.80;;;3.10;99.90;;;;;;4916940;29;20227;-72
2021/12/12 03:43:30;;;;;;;13.57;5.20;;;3.10;99.90;;;;;;4917717;29;20605;-74
2021/12/12 03:45:58;;;;;;;10.10;5.03;;;3.20;99.90;;;;;;4929176;29;20274;-71
2021/12/12 03:48:31;;;;;;;11.47;5.30;;;3.30;99.90;;;;;;4929756;29;20195;-71
2021/12/12 03:51:02;;;;;;;13.80;5.60;;;3.40;99.90;;;;;;4915247;29;20219;-75
2021/12/12 03:53:31;;;;;;;12.47;5.73;;;3.60;99.90;;;;;;4908490;29;20577;-72
2021/12/12 03:55:58;;;;;;;13.03;5.80;;;3.70;99.90;;;;;;4930986;29;20265;-71
2021/12/12 03:58:25;;;;;;;10.20;5.40;;;3.60;99.90;;;;;;4929455;29;20199;-72
2021/12/12 04:01:04;;;;;;;11.13;5.10;;;3.60;99.90;;;;;;4917366;29;20316;-74
2021/12/12 04:03:31;;;;;;;11.83;5.47;;;3.50;99.90;;;;;;4931185;29;20254;-73
2021/12/12 04:06:02;;;;;;;10.20;4.83;;;3.50;99.90;;;;;;4919713;29;20224;-71
2021/12/12 04:08:43;;;;;;;15.10;5.23;;;3.40;99.90;;;;;;4914921;29;20200;-72
2021/12/12 04:11:20;;;;;;;11.30;5.37;;;3.40;99.90;;;;;;4925556;29;20215;-74
2021/12/12 04:13:50;;;;;;;15.50;5.90;;;3.40;99.90;;;;;;4920505;29;20634;-72
2021/12/12 04:16:18;;;;;;;13.23;5.53;;;3.50;99.90;;;;;;4914829;29;20204;-72
2021/12/12 04:18:45;;;;;;;11.90;5.67;;;3.50;99.90;;;;;;4915410;29;20294;-72
2021/12/12 04:21:13;;;;;;;12.00;6.10;;;3.60;99.90;;;;;;4926481;29;20219;-71
2021/12/12 04:23:40;;;;;;;9.93;5.43;;;3.70;99.90;;;;;;4922007;29;20212;-73
2021/12/12 04:26:19;;;;;;;13.57;5.50;;;3.70;99.90;;;;;;4914906;29;20233;-73
2021/12/12 04:29:10;;;;;;;11.23;5.73;;;3.90;99.90;;;;;;4929165;29;20203;-73
2021/12/12 04:31:40;;;;;;;8.13;5.00;;;4.00;99.90;;;;;;4922246;29;20609;-72
2021/12/12 04:34:08;;;;;;;13.40;5.53;;;3.90;99.90;;;;;;4914662;29;20212;-72
2021/12/12 04:36:37;;;;;;;13.60;5.43;;;3.90;99.90;;;;;;4916325;29;20203;-71
2021/12/12 04:39:10;;;;;;;7.97;4.83;;;3.90;99.90;;;;;;4932600;29;20205;-72
2021/12/12 04:41:37;;;;;;;10.87;5.67;;;3.90;99.90;;;;;;4922996;29;20232;-72
2021/12/12 04:44:05;;;;;;;10.57;5.13;;;4.00;99.90;;;;;;4915598;29;20671;-72
2021/12/12 04:49:56;;;;;;;12.80;6.00;;;4.00;99.90;;;;;;4942760;29;20219;-73
2021/12/12 04:52:43;;;;;;;11.83;5.73;;;4.00;99.90;;;;;;4930597;29;20223;-72
2021/12/12 04:55:11;;;;;;;12.03;5.13;;;3.90;99.90;;;;;;4938380;29;20202;-71
2021/12/12 04:58:04;;;;;;;11.93;5.47;;;3.90;99.90;;;;;;4923781;29;20564;-74
2021/12/12 05:00:37;;;;;;;9.73;4.63;;;3.90;99.90;;;;;;4912196;29;20218;-72
2021/12/12 05:03:12;;;;;;;8.87;5.00;;;3.70;99.90;;;;;;4920729;29;20674;-73
2021/12/12 05:05:56;;;;;;;13.67;5.53;;;3.70;99.90;;;;;;4931304;29;20249;-73
2021/12/12 05:08:32;;;;;;;10.03;4.97;;;3.60;99.90;;;;;;4918130;29;20226;-72
2021/12/12 05:11:04;;;;;;;10.73;5.13;;;3.70;99.90;;;;;;4913377;29;20212;-72
2021/12/12 05:13:41;;;;;;;8.40;4.83;;;3.70;99.90;;;;;;4920211;29;20206;-74
2021/12/12 05:16:16;;;;;;;9.90;5.10;;;3.80;99.90;;;;;;4926115;29;20203;-72
2021/12/12 05:18:52;;;;;;;12.50;5.57;;;3.80;99.90;;;;;;4919354;29;20295;-72
2021/12/12 05:21:29;;;;;;;11.10;5.30;;;3.80;99.90;;;;;;4923076;29;20222;-72
2021/12/12 05:24:00;;;;;;;13.37;5.43;;;3.80;99.90;;;;;;4930949;29;20206;-72
2021/12/12 05:26:33;;;;;;;8.97;5.23;;;3.80;99.90;;;;;;4917912;29;20231;-73
2021/12/12 05:29:08;;;;;;;12.63;5.07;;;3.80;99.90;;;;;;4913866;29;20671;-73
2021/12/12 05:31:35;;;;;;;12.97;5.60;;;3.80;99.90;;;;;;4923635;29;20786;-73
2021/12/12 05:34:03;;;;;;;12.17;4.97;;;3.80;99.90;;;;;;4922041;29;20197;-73
2021/12/12 05:36:32;;;;;;;10.30;5.27;;;3.80;99.90;;;;;;4927087;29;20211;-73
2021/12/12 05:39:01;;;;;;;9.40;5.33;;;3.80;99.90;;;;;;4919808;29;20221;-74
2021/12/12 05:41:27;;;;;;;11.03;5.53;;;3.80;99.90;;;;;;4923157;29;20217;-75
2021/12/12 05:43:56;;;;;;;8.33;5.17;;;3.80;99.90;;;;;;4896720;29;20210;-73
2021/12/12 05:46:24;;;;;;;10.77;5.87;;;3.90;99.90;;;;;;4913747;29;20227;-73
2021/12/12 05:48:53;;;;;;;12.27;5.77;;;4.00;99.90;;;;;;4923833;29;20199;-73
2021/12/12 05:51:22;;;;;;;13.30;5.40;;;4.00;99.90;;;;;;4907076;29;20695;-73
2021/12/12 05:53:51;;;;;;;12.73;5.40;;;4.00;99.90;;;;;;4920271;29;20576;-73
2021/12/12 05:56:22;;;;;;;14.37;5.07;;;4.00;99.90;;;;;;4913880;29;20691;-73
2021/12/12 05:58:50;;;;;;;12.37;5.13;;;3.90;99.90;;;;;;4907378;29;20208;-73
2021/12/12 06:01:17;;;;;;;12.80;5.83;;;3.90;99.90;;;;;;4923624;29;20839;-74
2021/12/12 06:03:45;;;;;;;15.20;5.50;;;4.00;99.90;;;;;;4913476;29;20205;-74
2021/12/12 06:06:19;;;;;;;12.13;5.83;;;4.00;99.90;;;;;;4900951;29;20218;-75
2021/12/12 06:08:47;;;;;;;10.83;5.30;;;3.90;99.90;;;;;;4927951;29;20227;-73
2021/12/12 06:11:22;;;;;;;10.77;5.23;;;3.90;99.90;;;;;;4923466;29;20271;-76
2021/12/12 06:13:50;;;;;;;9.10;4.93;;;3.90;99.90;;;;;;4912834;29;20259;-74
2021/12/12 06:16:19;;;;;;;12.63;5.30;;;3.90;99.90;;;;;;4923513;29;20478;-74
2021/12/12 06:18:57;;;;;;;12.40;5.27;;;3.90;99.90;;;;;;4922970;29;20230;-73
2021/12/12 06:21:25;;;;;;;11.67;5.07;;;4.00;99.90;;;;;;4912729;29;20229;-73
2021/12/12 06:23:53;;;;;;;11.50;5.43;;;4.00;99.90;;;;;;4927140;29;20283;-73
2021/12/12 06:26:21;;;;;;;10.20;5.13;;;4.20;99.90;;;;;;4924881;29;20224;-73
2021/12/12 06:28:49;;;;;;;10.97;5.07;;;4.20;99.90;;;;;;4929022;29;20215;-73
2021/12/12 06:31:16;;;;;;;12.30;4.80;;;4.30;99.90;;;;;;4921990;29;20324;-73
2021/12/12 06:33:43;;;;;;;10.07;4.60;;;4.10;99.90;;;;;;4928816;29;20619;-73
2021/12/12 06:36:12;;;;;;;11.47;5.50;;;4.10;99.90;;;;;;4918902;29;20538;-73
2021/12/12 06:38:41;;;;;;;11.03;5.30;;;4.10;99.90;;;;;;4922777;29;20235;-74
2021/12/12 06:41:10;;;;;;;13.77;5.00;;;4.10;99.90;;;;;;4928285;29;20255;-75
2021/12/12 06:43:37;;;;;;;14.00;5.53;;;4.10;99.90;;;;;;4916716;29;20199;-73
2021/12/12 06:46:05;;;;;;;12.23;5.00;;;4.10;99.90;;;;;;4918885;29;20228;-73
2021/12/12 06:48:33;;;;;;;11.80;5.50;;;4.10;99.90;;;;;;4917386;29;20196;-73
2021/12/12 06:51:01;;;;;;;11.73;4.93;;;4.20;99.90;;;;;;4932333;29;20653;-74
2021/12/12 06:53:31;;;;;;;11.63;5.27;;;4.10;99.90;;;;;;4917125;29;20206;-74
2021/12/12 06:55:59;;;;;;;11.20;4.93;;;4.10;99.90;;;;;;4918956;29;20213;-73
2021/12/12 06:58:29;;;;;;;12.13;5.10;;;4.20;99.90;;;;;;4933465;29;20205;-71
2021/12/12 07:01:05;;;;;;;8.13;4.60;;;4.20;99.90;;;;;;4916242;29;20303;-73
2021/12/12 07:03:33;;;;;;;12.33;4.97;;;4.20;99.90;;;;;;4923874;29;20288;-73
2021/12/12 07:06:00;;;;;;;8.53;4.60;;;4.10;99.90;;;;;;4932365;29;20648;-72
2021/12/12 07:08:27;;;;;;;10.23;4.80;;;4.00;99.90;;;;;;4925738;29;20619;-73
2021/12/12 07:10:54;;;;;;;12.07;4.93;;;4.00;99.90;;;;;;4915499;29;20229;-73
2021/12/12 07:13:22;;;;;;;12.53;5.37;;;4.00;99.90;;;;;;4929969;29;20206;-75
2021/12/12 07:15:57;;;;;;;8.80;5.17;;;4.10;99.90;;;;;;4930856;29;20204;-74
2021/12/12 07:18:28;;;;;;;8.80;4.70;;;4.10;99.90;;;;;;4920389;29;20196;-73
2021/12/12 07:21:00;;;;;;;10.83;5.30;;;4.00;99.90;;;;;;4922041;29;20647;-73
2021/12/12 07:23:28;;;;;;;11.97;5.27;;;4.00;99.90;;;;;;4925601;29;20588;-72
2021/12/12 07:25:59;;;;;;;11.40;4.33;;;4.00;99.90;;;;;;4914205;29;20227;-75
2021/12/12 07:28:28;;;;;;;7.13;4.30;;;4.10;99.90;;;;;;4915544;29;20200;-75
2021/12/12 07:31:00;;;;;;;9.27;4.57;;;4.20;99.90;;;;;;4914965;29;20284;-74
2021/12/12 07:33:32;;;;;;;9.33;4.37;;;4.20;99.90;;;;;;4929460;29;20288;-73
2021/12/12 07:36:00;;;;;;;12.17;4.77;;;4.20;99.90;;;;;;4924471;29;20209;-73
2021/12/12 07:38:28;;;;;;;9.33;4.17;;;4.30;99.90;;;;;;4922043;29;20209;-74
2021/12/12 07:40:56;;;;;;;10.63;4.40;;;4.30;99.90;;;;;;4926520;29;20742;-73
2021/12/12 07:43:25;;;;;;;8.53;3.97;;;4.40;99.90;;;;;;4925752;29;20589;-74
2021/12/12 07:45:52;;;;;;;11.30;4.17;;;4.40;99.90;;;;;;4915383;29;20228;-73
2021/12/12 07:48:19;;;;;;;8.97;4.23;;;4.50;99.90;;;;;;4915310;29;20196;-75
2021/12/12 07:54:38;;;;;;;8.43;4.20;;;4.60;99.90;;;;;;4926357;29;20196;-74
2021/12/12 07:57:06;;;;;;;7.67;3.23;;;4.70;99.90;;;;;;4917297;29;20207;-73
2021/12/12 07:59:36;;;;;;;5.77;3.47;;;4.70;99.90;;;;;;4919919;29;20205;-73
2021/12/12 08:02:04;;;;;;;7.97;3.43;;;4.80;99.90;;;;;;4916441;29;20225;-73
2021/12/12 08:04:34;;;;;;;12.37;3.70;;;4.90;99.90;;;;;;4922120;29;20207;-73
2021/12/12 08:07:02;;;;;;;7.53;2.90;;;5.00;99.90;;;;;;4898438;29;20334;-75
2021/12/12 08:09:30;;;;;;;4.73;2.80;;;5.10;99.90;;;;;;4927342;29;20208;-73
2021/12/12 08:11:57;;;;;;;6.20;2.80;;;5.10;99.90;;;;;;4926157;29;20224;-75
2021/12/12 08:14:27;;;;;;;5.20;3.07;;;5.10;99.90;;;;;;4914776;29;20219;-73
2021/12/12 08:16:55;;;;;;;6.57;3.70;;;5.10;99.90;;;;;;4918473;29;20217;-73
2021/12/12 08:19:25;;;;;;;4.87;2.53;;;5.10;99.90;;;;;;4928299;29;20202;-73
2021/12/12 08:22:00;;;;;;;7.03;3.20;;;5.10;99.90;;;;;;4897694;29;20580;-73
2021/12/12 08:24:28;;;;;;;4.30;2.83;;;5.10;99.90;;;;;;4914260;29;20266;-75
2021/12/12 08:26:55;;;;;;;4.90;2.90;;;5.20;99.90;;;;;;4928937;29;20231;-74
2021/12/12 08:29:22;;;;;;;7.20;3.10;;;5.20;99.90;;;;;;4929571;29;20266;-75
2021/12/12 08:31:49;;;;;;;6.27;2.90;;;5.30;99.90;;;;;;4914523;29;20222;-73
2021/12/12 08:34:16;;;;;;;7.27;2.80;;;5.40;99.90;;;;;;4914764;29;20210;-74
2021/12/12 08:36:50;;;;;;;8.40;3.33;;;5.40;99.90;;;;;;4930226;29;20202;-73
2021/12/12 08:39:18;;;;;;;5.23;2.90;;;5.40;99.90;;;;;;4915778;29;20211;-74
2021/12/12 08:41:48;;;;;;;7.57;3.07;;;5.50;99.90;;;;;;4923843;29;20699;-73
2021/12/12 08:44:17;;;;;;;6.07;2.90;;;5.50;99.90;;;;;;4922351;29;20261;-73
2021/12/12 08:46:49;;;;;;;4.63;2.77;;;5.50;99.90;;;;;;4931487;29;20703;-73
2021/12/12 08:49:17;;;;;;;9.67;2.87;;;5.50;99.90;;;;;;4919760;29;20286;-73
2021/12/12 08:52:06;;;;;;;6.87;3.10;;;5.50;99.90;;;;;;4917256;29;20227;-72
2021/12/12 08:54:39;;;;;;;6.57;3.27;;;5.60;99.90;;;;;;4931963;29;20631;-72
2021/12/12 08:57:13;;;;;;;7.83;3.27;;;5.50;99.90;;;;;;4913447;29;20671;-73
2021/12/12 08:59:46;;;;;;;9.90;3.43;;;5.60;99.90;;;;;;4918114;29;20199;-73
2021/12/12 09:02:16;;;;;;;5.80;3.20;;;5.60;99.90;;;;;;4932078;29;20230;-73
2021/12/12 09:04:50;;;;;;;5.43;2.90;;;5.60;99.90;;;;;;4922175;29;20585;-71
2021/12/12 09:07:23;;;;;;;6.27;3.13;;;5.50;99.90;;;;;;4914335;29;20224;-73
2021/12/12 09:09:58;;;;;;;10.47;3.20;;;5.50;99.90;;;;;;4924527;29;20202;-73
2021/12/12 09:12:35;;;;;;;8.70;3.00;;;5.50;99.90;;;;;;4908093;29;20226;-73
2021/12/12 09:15:16;;;;;;;6.50;2.93;;;5.50;99.90;;;;;;4923907;29;20584;-73
2021/12/12 09:17:50;;;;;;;5.23;2.93;;;5.50;99.90;;;;;;4915766;29;20248;-73
2021/12/12 09:20:48;;;;;;;6.50;3.00;;;5.60;99.90;;;;;;4930686;29;20195;-72
2021/12/12 09:23:28;;;;;;;5.97;3.10;;;5.60;99.90;;;;;;4906707;29;20627;-73
2021/12/12 09:26:08;;;;;;;6.53;3.00;;;5.60;99.90;;;;;;4915309;29;20227;-73
2021/12/12 09:28:57;;;;;;;10.13;3.33;;;5.50;99.90;;;;;;4915245;29;20203;-73
2021/12/12 09:31:45;;;;;;;8.50;3.27;;;5.60;99.90;;;;;;4917258;29;20216;-72
2021/12/12 09:34:30;;;;;;;5.60;3.30;;;5.60;99.90;;;;;;4913384;29;20729;-73
2021/12/12 09:37:27;;;;;;;10.00;3.60;;;5.60;99.90;;;;;;4928976;29;20199;-72
2021/12/12 09:40:00;;;;;;;6.00;3.30;;;5.60;99.90;;;;;;4928456;29;20201;-73
2021/12/12 09:42:29;;;;;;;8.07;3.40;;;5.70;99.90;;;;;;4913494;29;20223;-72
2021/12/12 09:45:31;;;;;;;7.20;3.23;;;5.70;99.90;;;;;;4924111;29;20199;-73
2021/12/12 09:51:49;;;;;;;9.10;3.37;;;5.80;99.90;;;;;;4913695;29;20220;-72
2021/12/12 09:54:45;;;;;;;8.37;3.40;;;5.90;99.90;;;;;;4915115;29;20637;-72
2021/12/12 09:57:12;;;;;;;6.27;3.30;;;5.90;99.90;;;;;;4915738;29;20213;-72
2021/12/12 09:59:41;;;;;;;6.60;2.93;;;6.00;99.90;;;;;;4917978;29;20258;-72
2021/12/12 10:02:23;;;;;;;5.63;3.03;;;6.00;99.90;;;;;;4925326;29;20227;-72
2021/12/12 10:05:22;;;;;;;9.43;4.00;;;6.10;99.90;;;;;;4927222;29;20212;-72
2021/12/12 10:08:03;;;;;;;6.00;2.97;;;6.10;99.90;;;;;;4916752;29;20708;-72
2021/12/12 10:11:05;;;;;;;8.13;3.57;;;6.10;99.90;;;;;;4916845;29;20615;-72
2021/12/12 10:13:45;;;;;;;8.90;3.57;;;6.10;99.90;;;;;;4923987;29;20621;-74
2021/12/12 10:16:28;;;;;;;6.23;3.37;;;6.10;99.90;;;;;;4916863;29;20210;-71
2021/12/12 10:19:16;;;;;;;8.53;3.50;;;6.10;99.90;;;;;;4929640;29;20203;-72
2021/12/12 10:22:10;;;;;;;7.77;3.90;;;6.10;99.90;;;;;;4930614;29;20226;-73
2021/12/12 10:25:11;;;;;;;9.00;3.63;;;6.00;99.90;;;;;;4927577;29;20247;-73
2021/12/12 10:27:51;;;;;;;9.37;2.97;;;5.90;99.90;;;;;;4920868;29;20237;-73
2021/12/12 10:30:24;;;;;;;5.80;3.20;;;5.90;99.90;;;;;;4908906;29;20207;-73
2021/12/12 10:33:09;;;;;;;4.23;2.90;;;5.80;99.90;;;;;;4926751;29;20210;-72
2021/12/12 10:35:51;;;;;;;6.20;3.27;;;5.80;99.90;;;;;;4926762;29;20210;-73
2021/12/12 10:38:38;;;;;;;6.03;2.90;;;5.80;99.90;;;;;;4917910;29;20214;-72
2021/12/12 10:41:38;;;;;;;9.40;3.13;;;5.80;99.90;;;;;;4911764;29;20239;-72
2021/12/12 10:44:22;;;;;;;5.53;2.83;;;5.80;99.90;;;;;;4918966;29;20199;-71
2021/12/12 10:46:55;;;;;;;6.23;2.97;;;5.80;99.90;;;;;;4905119;29;20274;-73
2021/12/12 10:49:34;;;;;;;7.57;3.17;;;5.70;99.90;;;;;;4932543;29;20202;-73
2021/12/12 10:52:10;;;;;;;6.13;3.10;;;5.80;99.90;;;;;;4932992;29;20222;-73
2021/12/12 10:54:48;;;;;;;8.07;3.23;;;5.80;99.90;;;;;;4916308;29;20246;-72
2021/12/12 10:57:20;;;;;;;5.83;3.50;;;5.80;99.90;;;;;;4927169;29;20202;-72
2021/12/12 11:00:02;;;;;;;7.17;3.70;;;5.70;99.90;;;;;;4915188;29;20210;-72
2021/12/12 11:02:32;;;;;;;11.47;3.40;;;5.60;99.90;;;;;;4916341;29;20234;-72
2021/12/12 11:05:10;;;;;;;7.53;3.33;;;5.70;99.90;;;;;;4925967;29;20214;-75
2021/12/12 11:07:39;;;;;;;8.80;3.70;;;5.70;99.90;;;;;;4917469;29;20221;-72
2021/12/12 11:10:12;;;;;;;9.27;3.73;;;5.80;99.90;;;;;;4918587;29;20233;-73
2021/12/12 11:13:04;;;;;;;8.77;3.40;;;5.90;99.90;;;;;;4912210;29;20279;-72
2021/12/12 11:15:53;;;;;;;8.53;3.20;;;6.10;99.90;;;;;;4919129;29;20200;-73
2021/12/12 11:18:30;;;;;;;6.30;3.17;;;6.20;99.90;;;;;;4916876;29;20294;-74
2021/12/12 11:21:13;;;;;;;7.93;3.23;;;6.20;99.90;;;;;;4908568;29;20219;-74
2021/12/12 11:23:50;;;;;;;6.13;2.80;;;6.10;99.90;;;;;;4923438;29;20599;-72
2021/12/12 11:26:22;;;;;;;7.83;3.27;;;6.10;99.90;;;;;;4916202;29;20234;-73
2021/12/12 11:28:55;;;;;;;6.50;3.20;;;6.10;99.90;;;;;;4918975;29;20234;-74
2021/12/12 11:31:32;;;;;;;6.43;3.50;;;6.00;99.90;;;;;;4933068;29;20305;-74
2021/12/12 11:33:59;;;;;;;7.50;3.43;;;6.10;99.90;;;;;;4921726;29;20195;-73
2021/12/12 11:36:31;;;;;;;10.07;3.70;;;6.20;99.90;;;;;;4898580;29;20567;-72
2021/12/12 11:39:16;;;;;;;9.27;3.53;;;6.20;99.90;;;;;;4933223;29;20796;-73
2021/12/12 11:42:01;;;;;;;9.60;4.03;;;6.20;99.90;;;;;;4916168;29;20227;-72
2021/12/12 11:44:41;;;;;;;6.63;3.10;;;6.30;99.90;;;;;;4931528;29;20207;-73
2021/12/12 11:47:22;;;;;;;9.00;4.00;;;6.40;99.90;;;;;;4928855;29;20215;-73
2021/12/12 11:49:56;;;;;;;9.57;4.10;;;6.40;99.90;;;;;;4923944;29;20315;-73
2021/12/12 11:52:47;;;;;;;9.07;3.90;;;6.50;99.90;;;;;;4916484;29;20216;-72
2021/12/12 11:55:35;;;;;;;9.57;3.90;;;6.30;99.90;;;;;;4920194;29;20195;-73
2021/12/12 11:58:23;;;;;;;9.33;3.70;;;6.40;99.90;;;;;;4932415;29;20205;-70
2021/12/12 12:01:02;;;;;;;7.23;4.07;;;6.30;99.90;;;;;;4914801;29;20729;-73
2021/12/12 12:03:35;;;;;;;6.60;3.33;;;6.30;99.90;;;;;;4915799;29;20755;-72
2021/12/12 12:06:28;;;;;;;5.77;3.40;;;6.40;99.90;;;;;;4932101;29;20553;-72
2021/12/12 12:09:12;;;;;;;8.97;4.07;;;6.30;99.90;;;;;;4915313;29;20232;-72
2021/12/12 12:12:16;;;;;;;9.17;3.73;;;6.40;99.90;;;;;;4916567;29;20228;-72
2021/12/12 12:15:01;;;;;;;8.17;3.63;;;6.50;99.90;;;;;;4933513;29;20200;-72
2021/12/12 12:17:49;;;;;;;7.47;3.67;;;6.50;99.90;;;;;;4931296;29;20507;-72
2021/12/12 12:20:22;;;;;;;9.33;3.87;;;6.60;99.90;;;;;;4918444;29;20208;-72
2021/12/12 12:23:18;;;;;;;9.70;4.00;;;6.60;99.90;;;;;;4931134;29;20666;-70
2021/12/12 12:28:56;;;;;;;8.97;3.40;;;6.80;99.90;;;;;;4924169;29;20203;-74
2021/12/12 12:31:39;;;;;;;9.30;3.93;;;6.90;99.90;;;;;;4926861;29;20274;-72
2021/12/12 12:34:44;;;;;;;8.13;3.23;;;6.90;99.90;;;;;;4914503;29;20640;-72
2021/12/12 12:37:26;;;;;;;5.83;3.60;;;6.90;99.90;;;;;;4928551;29;20201;-75
2021/12/12 12:40:30;;;;;;;9.03;4.00;;;7.00;99.90;;;;;;4926080;29;20217;-73
2021/12/12 12:43:23;;;;;;;11.40;3.77;;;7.10;99.90;;;;;;4921007;29;20205;-74
2021/12/12 12:46:14;;;;;;;7.17;3.67;;;7.10;99.90;;;;;;4932612;29;20209;-73
2021/12/12 12:48:53;;;;;;;8.33;3.90;;;7.30;99.90;;;;;;4925846;29;20206;-73
2021/12/12 12:51:38;;;;;;;7.63;3.50;;;7.20;99.90;;;;;;4913655;29;20220;-74
2021/12/12 12:54:10;;;;;;;6.60;3.90;;;7.10;99.90;;;;;;4903531;29;20200;-74
2021/12/12 12:57:16;;;;;;;8.90;3.50;;;7.00;99.90;;;;;;4927582;29;20350;-74
2021/12/12 13:00:06;;;;;;;7.37;3.70;;;7.10;99.90;;;;;;4915559;29;20210;-73
2021/12/12 13:02:38;;;;;;;10.40;3.80;;;7.20;99.90;;;;;;4919210;29;20222;-75
2021/12/12 13:05:08;;;;;;;7.00;4.03;;;7.20;99.90;;;;;;4924764;29;20199;-74
2021/12/12 13:07:41;;;;;;;7.80;3.97;;;7.20;99.90;;;;;;4924942;29;20221;-74
2021/12/12 13:10:20;;;;;;;9.13;4.27;;;7.30;99.90;;;;;;4913961;29;20194;-73
2021/12/12 13:13:28;;;;;;;7.63;3.70;;;7.30;99.90;;;;;;4924212;29;20221;-73
2021/12/12 13:16:02;;;;;;;6.70;3.67;;;7.40;99.90;;;;;;4923651;29;20208;-73
2021/12/12 13:18:49;;;;;;;9.40;4.00;;;7.30;99.90;;;;;;4916742;29;20259;-73
2021/12/12 13:21:15;;;;;;;9.40;4.30;;;7.00;99.90;;;;;;4913028;29;20256;-73
2021/12/12 13:23:47;;;;;;;8.20;4.20;;;7.10;99.90;;;;;;4927370;29;20614;-75
2021/12/12 13:26:29;;;;;;;8.20;3.73;;;7.00;99.90;;;;;;4912346;29;20209;-70
2021/12/12 13:29:14;;;;;;;8.53;4.03;;;6.90;99.90;;;;;;4913803;29;20213;-76
2021/12/12 13:31:52;;;;;;;8.93;4.23;;;7.00;99.90;;;;;;4927272;29;20220;-73
2021/12/12 13:34:32;;;;;;;11.17;4.60;;;6.90;99.90;;;;;;4914545;29;20202;-75
2021/12/12 13:37:27;;;;;;;11.37;4.60;;;7.10;99.90;;;;;;4921465;29;20210;-73
2021/12/12 13:40:22;;;;;;;9.63;4.30;;;7.00;99.90;;;;;;4924853;29;20560;-73
2021/12/12 13:43:08;;;;;;;8.83;4.50;;;7.10;99.90;;;;;;4913667;29;20233;-76
2021/12/12 13:46:08;;;;;;;7.43;4.20;;;7.00;99.90;;;;;;4919890;29;20566;-73
2021/12/12 13:48:54;;;;;;;8.10;3.83;;;7.00;99.90;;;;;;4919478;29;20257;-71
2021/12/12 13:51:50;;;;;;;9.47;4.30;;;7.00;99.90;;;;;;4915812;29;20700;-73
2021/12/12 13:54:26;;;;;;;7.93;4.10;;;6.90;99.90;;;;;;4919624;29;20206;-75
2021/12/12 13:57:22;;;;;;;9.90;4.00;;;6.90;99.90;;;;;;4929747;29;20200;-74
2021/12/12 14:00:10;;;;;;;9.83;4.03;;;7.00;99.90;;;;;;4913682;29;20227;-73
2021/12/12 14:02:40;;;;;;;8.73;4.50;;;7.00;99.90;;;;;;4920266;29;20233;-74